sensor_id;sensor_type;location;lat;lon;timestamp;P1;durP1;ratioP1;P2;durP2;ratioP2
73940;SDS011;62294;48.554;10.202;2023-04-24T00:00:46;1.52;;;1.05;;
73940;SDS011;62294;48.554;10.202;2023-04-24T00:03:13;1.30;;;0.75;;
73940;SDS011;62294;48.554;10.202;2023-04-24T00:05:40;0.85;;;0.80;;
73940;SDS011;62294;48.554;10.202;2023-04-24T00:08:07;2.22;;;0.93;;
73940;SDS011;62294;48.554;10.202;2023-04-24T00:10:34;1.33;;;0.90;;
73940;SDS011;62294;48.554;10.202;2023-04-24T00:13:00;0.77;;;0.73;;
73940;SDS011;62294;48.554;10.202;2023-04-24T00:15:27;1.48;;;1.23;;
73940;SDS011;62294;48.554;10.202;2023-04-24T00:17:54;1.98;;;1.40;;
73940;SDS011;62294;48.554;10.202;2023-04-24T00:20:20;2.08;;;0.93;;
73940;SDS011;62294;48.554;10.202;2023-04-24T00:22:47;2.40;;;0.95;;
73940;SDS011;62294;48.554;10.202;2023-04-24T00:25:14;0.93;;;0.77;;
73940;SDS011;62294;48.554;10.202;2023-04-24T00:27:40;4.18;;;1.08;;
73940;SDS011;62294;48.554;10.202;2023-04-24T00:30:07;1.33;;;1.08;;
73940;SDS011;62294;48.554;10.202;2023-04-24T00:32:34;2.95;;;1.30;;
73940;SDS011;62294;48.554;10.202;2023-04-24T00:35:01;3.05;;;1.38;;
73940;SDS011;62294;48.554;10.202;2023-04-24T00:37:28;2.30;;;1.30;;
73940;SDS011;62294;48.554;10.202;2023-04-24T00:39:54;1.65;;;1.15;;
73940;SDS011;62294;48.554;10.202;2023-04-24T00:42:21;1.95;;;1.67;;
73940;SDS011;62294;48.554;10.202;2023-04-24T00:44:48;1.63;;;1.10;;
73940;SDS011;62294;48.554;10.202;2023-04-24T00:47:15;1.52;;;0.93;;
73940;SDS011;62294;48.554;10.202;2023-04-24T00:49:41;3.38;;;1.27;;
73940;SDS011;62294;48.554;10.202;2023-04-24T00:52:09;2.47;;;1.08;;
73940;SDS011;62294;48.554;10.202;2023-04-24T00:54:35;5.35;;;1.52;;
73940;SDS011;62294;48.554;10.202;2023-04-24T00:57:05;2.22;;;1.27;;
73940;SDS011;62294;48.554;10.202;2023-04-24T00:59:32;2.10;;;1.42;;
73940;SDS011;62294;48.554;10.202;2023-04-24T01:01:59;0.70;;;0.70;;
73940;SDS011;62294;48.554;10.202;2023-04-24T01:04:25;1.38;;;1.10;;
73940;SDS011;62294;48.554;10.202;2023-04-24T01:06:53;1.17;;;0.95;;
73940;SDS011;62294;48.554;10.202;2023-04-24T01:09:22;1.88;;;1.27;;
73940;SDS011;62294;48.554;10.202;2023-04-24T01:11:49;2.10;;;1.25;;
73940;SDS011;62294;48.554;10.202;2023-04-24T01:14:17;2.08;;;1.15;;
73940;SDS011;62294;48.554;10.202;2023-04-24T01:16:43;1.95;;;1.27;;
73940;SDS011;62294;48.554;10.202;2023-04-24T01:19:10;1.50;;;1.10;;
73940;SDS011;62294;48.554;10.202;2023-04-24T01:21:38;2.20;;;1.20;;
73940;SDS011;62294;48.554;10.202;2023-04-24T01:24:06;1.67;;;0.98;;
73940;SDS011;62294;48.554;10.202;2023-04-24T01:26:33;1.73;;;1.00;;
73940;SDS011;62294;48.554;10.202;2023-04-24T01:29:00;4.25;;;0.93;;
73940;SDS011;62294;48.554;10.202;2023-04-24T01:31:27;1.45;;;1.13;;
73940;SDS011;62294;48.554;10.202;2023-04-24T01:33:54;1.88;;;1.40;;
73940;SDS011;62294;48.554;10.202;2023-04-24T01:36:22;1.80;;;1.23;;
73940;SDS011;62294;48.554;10.202;2023-04-24T01:38:52;1.15;;;0.85;;
73940;SDS011;62294;48.554;10.202;2023-04-24T01:41:19;1.92;;;1.30;;
73940;SDS011;62294;48.554;10.202;2023-04-24T01:43:46;2.00;;;1.38;;
73940;SDS011;62294;48.554;10.202;2023-04-24T01:46:14;3.40;;;1.42;;
73940;SDS011;62294;48.554;10.202;2023-04-24T01:48:41;1.98;;;1.35;;
73940;SDS011;62294;48.554;10.202;2023-04-24T01:51:08;3.65;;;1.08;;
73940;SDS011;62294;48.554;10.202;2023-04-24T01:53:35;2.25;;;1.38;;
73940;SDS011;62294;48.554;10.202;2023-04-24T01:56:02;1.98;;;1.40;;
73940;SDS011;62294;48.554;10.202;2023-04-24T01:58:29;1.98;;;1.20;;
73940;SDS011;62294;48.554;10.202;2023-04-24T02:00:56;1.50;;;1.10;;
73940;SDS011;62294;48.554;10.202;2023-04-24T02:03:25;2.13;;;1.48;;
73940;SDS011;62294;48.554;10.202;2023-04-24T02:05:53;2.83;;;1.20;;
73940;SDS011;62294;48.554;10.202;2023-04-24T02:08:19;2.05;;;1.30;;
73940;SDS011;62294;48.554;10.202;2023-04-24T02:10:46;3.90;;;2.00;;
73940;SDS011;62294;48.554;10.202;2023-04-24T02:13:13;1.27;;;1.17;;
73940;SDS011;62294;48.554;10.202;2023-04-24T02:15:39;1.20;;;1.00;;
73940;SDS011;62294;48.554;10.202;2023-04-24T02:18:05;1.40;;;1.00;;
73940;SDS011;62294;48.554;10.202;2023-04-24T02:20:33;4.40;;;1.25;;
73940;SDS011;62294;48.554;10.202;2023-04-24T02:23:03;3.95;;;1.77;;
73940;SDS011;62294;48.554;10.202;2023-04-24T02:25:29;2.20;;;1.30;;
73940;SDS011;62294;48.554;10.202;2023-04-24T02:27:56;1.98;;;1.08;;
73940;SDS011;62294;48.554;10.202;2023-04-24T02:30:23;2.58;;;1.40;;
73940;SDS011;62294;48.554;10.202;2023-04-24T02:32:49;1.33;;;1.23;;
73940;SDS011;62294;48.554;10.202;2023-04-24T02:35:16;1.90;;;1.25;;
73940;SDS011;62294;48.554;10.202;2023-04-24T02:37:42;2.38;;;1.23;;
73940;SDS011;62294;48.554;10.202;2023-04-24T02:40:09;7.07;;;1.40;;
73940;SDS011;62294;48.554;10.202;2023-04-24T02:42:36;2.53;;;1.65;;
73940;SDS011;62294;48.554;10.202;2023-04-24T02:45:02;3.15;;;1.85;;
73940;SDS011;62294;48.554;10.202;2023-04-24T02:47:29;3.33;;;1.40;;
73940;SDS011;62294;48.554;10.202;2023-04-24T02:49:56;3.20;;;1.67;;
73940;SDS011;62294;48.554;10.202;2023-04-24T02:52:22;3.30;;;1.60;;
73940;SDS011;62294;48.554;10.202;2023-04-24T02:54:49;3.13;;;1.58;;
73940;SDS011;62294;48.554;10.202;2023-04-24T02:57:15;3.15;;;1.40;;
73940;SDS011;62294;48.554;10.202;2023-04-24T02:59:42;2.90;;;1.40;;
73940;SDS011;62294;48.554;10.202;2023-04-24T03:02:10;2.22;;;1.40;;
73940;SDS011;62294;48.554;10.202;2023-04-24T03:04:36;3.17;;;1.70;;
73940;SDS011;62294;48.554;10.202;2023-04-24T03:07:03;1.88;;;1.48;;
73940;SDS011;62294;48.554;10.202;2023-04-24T03:09:31;2.20;;;1.50;;
73940;SDS011;62294;48.554;10.202;2023-04-24T03:11:57;2.20;;;1.80;;
73940;SDS011;62294;48.554;10.202;2023-04-24T03:14:24;4.75;;;2.58;;
73940;SDS011;62294;48.554;10.202;2023-04-24T03:16:51;4.88;;;2.65;;
73940;SDS011;62294;48.554;10.202;2023-04-24T03:19:18;9.43;;;3.58;;
73940;SDS011;62294;48.554;10.202;2023-04-24T03:21:44;6.45;;;3.40;;
73940;SDS011;62294;48.554;10.202;2023-04-24T03:24:11;6.40;;;4.10;;
73940;SDS011;62294;48.554;10.202;2023-04-24T03:26:37;6.72;;;3.80;;
73940;SDS011;62294;48.554;10.202;2023-04-24T03:29:04;7.80;;;3.60;;
73940;SDS011;62294;48.554;10.202;2023-04-24T03:31:31;4.40;;;2.47;;
73940;SDS011;62294;48.554;10.202;2023-04-24T03:33:57;4.25;;;2.35;;
73940;SDS011;62294;48.554;10.202;2023-04-24T03:36:24;3.50;;;1.80;;
73940;SDS011;62294;48.554;10.202;2023-04-24T03:38:52;7.15;;;1.48;;
73940;SDS011;62294;48.554;10.202;2023-04-24T03:41:18;3.40;;;1.63;;
73940;SDS011;62294;48.554;10.202;2023-04-24T03:43:45;2.55;;;0.95;;
73940;SDS011;62294;48.554;10.202;2023-04-24T03:46:11;1.48;;;1.10;;
73940;SDS011;62294;48.554;10.202;2023-04-24T03:48:39;2.35;;;1.50;;
73940;SDS011;62294;48.554;10.202;2023-04-24T03:51:05;0.73;;;0.70;;
73940;SDS011;62294;48.554;10.202;2023-04-24T03:53:32;1.15;;;1.00;;
73940;SDS011;62294;48.554;10.202;2023-04-24T03:55:58;1.25;;;0.93;;
73940;SDS011;62294;48.554;10.202;2023-04-24T03:58:25;3.03;;;1.35;;
73940;SDS011;62294;48.554;10.202;2023-04-24T04:00:52;2.78;;;1.45;;
73940;SDS011;62294;48.554;10.202;2023-04-24T04:03:18;3.45;;;1.60;;
73940;SDS011;62294;48.554;10.202;2023-04-24T04:05:45;2.85;;;1.60;;
73940;SDS011;62294;48.554;10.202;2023-04-24T04:08:12;2.67;;;1.63;;
73940;SDS011;62294;48.554;10.202;2023-04-24T04:10:38;3.15;;;2.08;;
73940;SDS011;62294;48.554;10.202;2023-04-24T04:13:05;3.45;;;2.20;;
73940;SDS011;62294;48.554;10.202;2023-04-24T04:15:32;2.80;;;1.83;;
73940;SDS011;62294;48.554;10.202;2023-04-24T04:17:59;4.03;;;2.45;;
73940;SDS011;62294;48.554;10.202;2023-04-24T04:20:25;4.53;;;2.53;;
73940;SDS011;62294;48.554;10.202;2023-04-24T04:22:52;4.47;;;3.25;;
73940;SDS011;62294;48.554;10.202;2023-04-24T04:25:18;7.15;;;4.15;;
73940;SDS011;62294;48.554;10.202;2023-04-24T04:27:46;5.55;;;3.28;;
73940;SDS011;62294;48.554;10.202;2023-04-24T04:30:14;6.55;;;4.55;;
73940;SDS011;62294;48.554;10.202;2023-04-24T04:32:41;8.10;;;3.65;;
73940;SDS011;62294;48.554;10.202;2023-04-24T04:35:07;6.55;;;3.83;;
73940;SDS011;62294;48.554;10.202;2023-04-24T04:37:34;6.13;;;3.97;;
73940;SDS011;62294;48.554;10.202;2023-04-24T04:40:01;7.78;;;4.55;;
73940;SDS011;62294;48.554;10.202;2023-04-24T04:42:33;5.43;;;3.42;;
73940;SDS011;62294;48.554;10.202;2023-04-24T04:45:09;3.95;;;2.67;;
73940;SDS011;62294;48.554;10.202;2023-04-24T04:47:37;4.78;;;2.65;;
73940;SDS011;62294;48.554;10.202;2023-04-24T04:50:04;5.80;;;3.60;;
73940;SDS011;62294;48.554;10.202;2023-04-24T04:52:31;4.63;;;3.25;;
73940;SDS011;62294;48.554;10.202;2023-04-24T04:54:58;5.32;;;3.65;;
73940;SDS011;62294;48.554;10.202;2023-04-24T04:57:24;3.97;;;2.15;;
73940;SDS011;62294;48.554;10.202;2023-04-24T04:59:51;4.60;;;2.65;;
73940;SDS011;62294;48.554;10.202;2023-04-24T05:02:18;5.78;;;3.13;;
73940;SDS011;62294;48.554;10.202;2023-04-24T05:04:45;4.50;;;2.78;;
73940;SDS011;62294;48.554;10.202;2023-04-24T05:07:12;5.97;;;3.42;;
73940;SDS011;62294;48.554;10.202;2023-04-24T05:09:39;8.82;;;4.97;;
73940;SDS011;62294;48.554;10.202;2023-04-24T05:12:06;5.47;;;3.65;;
73940;SDS011;62294;48.554;10.202;2023-04-24T05:14:33;6.88;;;4.13;;
73940;SDS011;62294;48.554;10.202;2023-04-24T05:17:00;7.57;;;4.15;;
73940;SDS011;62294;48.554;10.202;2023-04-24T05:19:27;6.93;;;4.75;;
73940;SDS011;62294;48.554;10.202;2023-04-24T05:21:54;8.18;;;4.53;;
73940;SDS011;62294;48.554;10.202;2023-04-24T05:24:20;6.78;;;4.18;;
73940;SDS011;62294;48.554;10.202;2023-04-24T05:26:47;7.45;;;4.30;;
73940;SDS011;62294;48.554;10.202;2023-04-24T05:29:14;7.60;;;4.80;;
73940;SDS011;62294;48.554;10.202;2023-04-24T05:31:41;7.88;;;5.43;;
73940;SDS011;62294;48.554;10.202;2023-04-24T05:34:07;7.55;;;4.65;;
73940;SDS011;62294;48.554;10.202;2023-04-24T05:36:34;7.60;;;4.05;;
73940;SDS011;62294;48.554;10.202;2023-04-24T05:39:00;8.10;;;5.25;;
73940;SDS011;62294;48.554;10.202;2023-04-24T05:41:27;8.48;;;4.72;;
73940;SDS011;62294;48.554;10.202;2023-04-24T05:43:53;4.72;;;2.92;;
73940;SDS011;62294;48.554;10.202;2023-04-24T05:46:20;3.55;;;2.65;;
73940;SDS011;62294;48.554;10.202;2023-04-24T05:48:47;13.38;;;2.63;;
73940;SDS011;62294;48.554;10.202;2023-04-24T05:51:13;3.20;;;2.30;;
73940;SDS011;62294;48.554;10.202;2023-04-24T05:53:40;3.78;;;2.53;;
73940;SDS011;62294;48.554;10.202;2023-04-24T05:56:06;2.45;;;1.90;;
73940;SDS011;62294;48.554;10.202;2023-04-24T05:58:33;4.22;;;1.85;;
73940;SDS011;62294;48.554;10.202;2023-04-24T06:01:00;2.22;;;1.73;;
73940;SDS011;62294;48.554;10.202;2023-04-24T06:03:27;2.42;;;1.63;;
73940;SDS011;62294;48.554;10.202;2023-04-24T06:05:54;3.58;;;1.67;;
73940;SDS011;62294;48.554;10.202;2023-04-24T06:08:21;1.98;;;1.65;;
73940;SDS011;62294;48.554;10.202;2023-04-24T06:10:48;1.80;;;1.00;;
73940;SDS011;62294;48.554;10.202;2023-04-24T06:13:14;0.88;;;0.80;;
73940;SDS011;62294;48.554;10.202;2023-04-24T06:15:42;1.10;;;0.95;;
73940;SDS011;62294;48.554;10.202;2023-04-24T06:18:10;0.70;;;0.70;;
73940;SDS011;62294;48.554;10.202;2023-04-24T06:20:36;1.70;;;1.40;;
73940;SDS011;62294;48.554;10.202;2023-04-24T06:23:03;0.95;;;0.95;;
73940;SDS011;62294;48.554;10.202;2023-04-24T06:25:29;2.35;;;0.80;;
73940;SDS011;62294;48.554;10.202;2023-04-24T06:27:56;0.60;;;0.60;;
73940;SDS011;62294;48.554;10.202;2023-04-24T06:30:23;1.35;;;0.90;;
73940;SDS011;62294;48.554;10.202;2023-04-24T06:32:50;2.53;;;1.10;;
73940;SDS011;62294;48.554;10.202;2023-04-24T06:35:17;1.00;;;0.90;;
73940;SDS011;62294;48.554;10.202;2023-04-24T06:37:44;0.90;;;0.85;;
73940;SDS011;62294;48.554;10.202;2023-04-24T06:40:10;1.42;;;1.13;;
73940;SDS011;62294;48.554;10.202;2023-04-24T06:42:37;1.50;;;1.00;;
73940;SDS011;62294;48.554;10.202;2023-04-24T06:45:04;2.35;;;0.88;;
73940;SDS011;62294;48.554;10.202;2023-04-24T06:47:31;3.25;;;1.00;;
73940;SDS011;62294;48.554;10.202;2023-04-24T06:49:58;1.55;;;1.10;;
73940;SDS011;62294;48.554;10.202;2023-04-24T06:52:25;1.63;;;1.15;;
73940;SDS011;62294;48.554;10.202;2023-04-24T06:54:51;2.92;;;1.10;;
73940;SDS011;62294;48.554;10.202;2023-04-24T06:57:18;3.08;;;1.20;;
73940;SDS011;62294;48.554;10.202;2023-04-24T06:59:45;1.83;;;1.35;;
73940;SDS011;62294;48.554;10.202;2023-04-24T07:02:12;2.65;;;1.50;;
73940;SDS011;62294;48.554;10.202;2023-04-24T07:04:39;1.75;;;1.10;;
73940;SDS011;62294;48.554;10.202;2023-04-24T07:07:06;1.25;;;1.10;;
73940;SDS011;62294;48.554;10.202;2023-04-24T07:09:33;1.10;;;1.00;;
73940;SDS011;62294;48.554;10.202;2023-04-24T07:12:01;2.83;;;1.08;;
73940;SDS011;62294;48.554;10.202;2023-04-24T07:14:28;1.42;;;1.15;;
73940;SDS011;62294;48.554;10.202;2023-04-24T07:16:55;2.78;;;1.20;;
73940;SDS011;62294;48.554;10.202;2023-04-24T07:19:23;1.27;;;1.10;;
73940;SDS011;62294;48.554;10.202;2023-04-24T07:21:49;1.58;;;1.15;;
73940;SDS011;62294;48.554;10.202;2023-04-24T07:24:16;1.85;;;1.25;;
73940;SDS011;62294;48.554;10.202;2023-04-24T07:26:43;3.90;;;1.17;;
73940;SDS011;62294;48.554;10.202;2023-04-24T07:29:10;1.15;;;1.05;;
73940;SDS011;62294;48.554;10.202;2023-04-24T07:31:36;0.80;;;0.80;;
73940;SDS011;62294;48.554;10.202;2023-04-24T07:34:03;1.05;;;0.95;;
73940;SDS011;62294;48.554;10.202;2023-04-24T07:36:30;1.27;;;0.82;;
73940;SDS011;62294;48.554;10.202;2023-04-24T07:38:58;1.10;;;0.90;;
73940;SDS011;62294;48.554;10.202;2023-04-24T07:41:24;1.35;;;1.10;;
73940;SDS011;62294;48.554;10.202;2023-04-24T07:43:51;1.60;;;0.90;;
73940;SDS011;62294;48.554;10.202;2023-04-24T07:46:19;1.10;;;1.00;;
73940;SDS011;62294;48.554;10.202;2023-04-24T07:48:46;2.97;;;1.05;;
73940;SDS011;62294;48.554;10.202;2023-04-24T07:51:27;3.58;;;1.10;;
73940;SDS011;62294;48.554;10.202;2023-04-24T07:53:54;1.92;;;1.30;;
73940;SDS011;62294;48.554;10.202;2023-04-24T07:56:23;1.23;;;1.13;;
73940;SDS011;62294;48.554;10.202;2023-04-24T07:58:53;1.73;;;1.38;;
73940;SDS011;62294;48.554;10.202;2023-04-24T08:01:19;2.47;;;1.33;;
73940;SDS011;62294;48.554;10.202;2023-04-24T08:03:46;2.08;;;1.33;;
73940;SDS011;62294;48.554;10.202;2023-04-24T08:06:12;1.80;;;1.17;;
73940;SDS011;62294;48.554;10.202;2023-04-24T08:08:39;2.20;;;1.30;;
73940;SDS011;62294;48.554;10.202;2023-04-24T08:11:05;3.28;;;1.33;;
73940;SDS011;62294;48.554;10.202;2023-04-24T08:13:32;3.03;;;1.48;;
73940;SDS011;62294;48.554;10.202;2023-04-24T08:15:59;2.08;;;1.40;;
73940;SDS011;62294;48.554;10.202;2023-04-24T08:18:25;3.65;;;1.67;;
73940;SDS011;62294;48.554;10.202;2023-04-24T08:20:53;1.45;;;1.10;;
73940;SDS011;62294;48.554;10.202;2023-04-24T08:23:19;2.05;;;1.40;;
73940;SDS011;62294;48.554;10.202;2023-04-24T08:25:46;3.33;;;1.52;;
73940;SDS011;62294;48.554;10.202;2023-04-24T08:28:12;3.45;;;1.60;;
73940;SDS011;62294;48.554;10.202;2023-04-24T08:30:42;1.88;;;1.50;;
73940;SDS011;62294;48.554;10.202;2023-04-24T08:33:08;2.00;;;1.50;;
73940;SDS011;62294;48.554;10.202;2023-04-24T08:35:35;1.60;;;1.10;;
73940;SDS011;62294;48.554;10.202;2023-04-24T08:38:01;1.52;;;1.35;;
73940;SDS011;62294;48.554;10.202;2023-04-24T08:40:28;0.82;;;0.80;;
73940;SDS011;62294;48.554;10.202;2023-04-24T08:42:58;1.85;;;1.30;;
73940;SDS011;62294;48.554;10.202;2023-04-24T08:45:25;1.20;;;1.00;;
73940;SDS011;62294;48.554;10.202;2023-04-24T08:47:52;1.45;;;1.08;;
73940;SDS011;62294;48.554;10.202;2023-04-24T08:50:21;1.80;;;1.15;;
73940;SDS011;62294;48.554;10.202;2023-04-24T08:52:52;1.38;;;1.23;;
73940;SDS011;62294;48.554;10.202;2023-04-24T08:55:23;2.13;;;1.20;;
73940;SDS011;62294;48.554;10.202;2023-04-24T08:57:52;2.60;;;1.20;;
73940;SDS011;62294;48.554;10.202;2023-04-24T09:00:22;1.23;;;1.13;;
73940;SDS011;62294;48.554;10.202;2023-04-24T09:02:49;1.77;;;1.10;;
73940;SDS011;62294;48.554;10.202;2023-04-24T09:05:17;3.40;;;1.20;;
73940;SDS011;62294;48.554;10.202;2023-04-24T09:07:45;1.40;;;1.10;;
73940;SDS011;62294;48.554;10.202;2023-04-24T09:10:16;1.77;;;1.15;;
73940;SDS011;62294;48.554;10.202;2023-04-24T09:12:43;2.75;;;1.02;;
73940;SDS011;62294;48.554;10.202;2023-04-24T09:15:10;2.33;;;1.40;;
73940;SDS011;62294;48.554;10.202;2023-04-24T09:17:37;0.85;;;0.85;;
73940;SDS011;62294;48.554;10.202;2023-04-24T09:20:04;1.60;;;1.05;;
73940;SDS011;62294;48.554;10.202;2023-04-24T09:22:31;1.27;;;0.90;;
73940;SDS011;62294;48.554;10.202;2023-04-24T09:25:02;2.20;;;0.90;;
73940;SDS011;62294;48.554;10.202;2023-04-24T09:27:33;0.77;;;0.75;;
73940;SDS011;62294;48.554;10.202;2023-04-24T09:30:00;0.80;;;0.80;;
73940;SDS011;62294;48.554;10.202;2023-04-24T09:32:27;1.15;;;1.05;;
73940;SDS011;62294;48.554;10.202;2023-04-24T09:35:10;2.05;;;0.90;;
73940;SDS011;62294;48.554;10.202;2023-04-24T09:37:39;2.45;;;1.20;;
73940;SDS011;62294;48.554;10.202;2023-04-24T09:40:08;1.23;;;1.00;;
73940;SDS011;62294;48.554;10.202;2023-04-24T09:42:38;0.98;;;0.93;;
73940;SDS011;62294;48.554;10.202;2023-04-24T09:45:08;2.15;;;1.33;;
73940;SDS011;62294;48.554;10.202;2023-04-24T09:47:41;0.95;;;0.90;;
73940;SDS011;62294;48.554;10.202;2023-04-24T09:50:09;3.08;;;1.45;;
73940;SDS011;62294;48.554;10.202;2023-04-24T09:52:39;2.15;;;1.30;;
73940;SDS011;62294;48.554;10.202;2023-04-24T09:55:11;3.83;;;1.08;;
73940;SDS011;62294;48.554;10.202;2023-04-24T09:57:53;4.00;;;1.55;;
73940;SDS011;62294;48.554;10.202;2023-04-24T10:00:24;1.50;;;1.13;;
73940;SDS011;62294;48.554;10.202;2023-04-24T10:02:56;1.13;;;1.00;;
73940;SDS011;62294;48.554;10.202;2023-04-24T10:05:28;1.98;;;1.10;;
73940;SDS011;62294;48.554;10.202;2023-04-24T10:08:07;1.67;;;1.58;;
73940;SDS011;62294;48.554;10.202;2023-04-24T10:10:41;1.52;;;1.20;;
73940;SDS011;62294;48.554;10.202;2023-04-24T10:13:10;2.17;;;1.30;;
73940;SDS011;62294;48.554;10.202;2023-04-24T10:15:37;2.00;;;1.10;;
73940;SDS011;62294;48.554;10.202;2023-04-24T10:18:05;2.97;;;1.23;;
73940;SDS011;62294;48.554;10.202;2023-04-24T10:20:35;4.85;;;1.00;;
73940;SDS011;62294;48.554;10.202;2023-04-24T10:23:03;1.48;;;1.10;;
73940;SDS011;62294;48.554;10.202;2023-04-24T10:25:31;1.27;;;0.95;;
73940;SDS011;62294;48.554;10.202;2023-04-24T10:28:00;2.85;;;1.10;;
73940;SDS011;62294;48.554;10.202;2023-04-24T10:30:28;1.25;;;1.08;;
73940;SDS011;62294;48.554;10.202;2023-04-24T10:33:02;3.35;;;1.00;;
73940;SDS011;62294;48.554;10.202;2023-04-24T10:35:30;1.77;;;0.95;;
73940;SDS011;62294;48.554;10.202;2023-04-24T10:38:13;1.10;;;1.00;;
73940;SDS011;62294;48.554;10.202;2023-04-24T10:40:42;1.58;;;1.00;;
73940;SDS011;62294;48.554;10.202;2023-04-24T10:43:10;1.63;;;1.30;;
73940;SDS011;62294;48.554;10.202;2023-04-24T10:45:59;7.35;;;3.60;;
73940;SDS011;62294;48.554;10.202;2023-04-24T10:48:31;1.42;;;1.20;;
73940;SDS011;62294;48.554;10.202;2023-04-24T10:50:58;1.20;;;1.08;;
73940;SDS011;62294;48.554;10.202;2023-04-24T10:53:28;1.50;;;1.02;;
73940;SDS011;62294;48.554;10.202;2023-04-24T10:58:35;1.65;;;1.27;;
73940;SDS011;62294;48.554;10.202;2023-04-24T11:01:06;1.45;;;1.05;;
73940;SDS011;62294;48.554;10.202;2023-04-24T11:03:34;2.15;;;1.35;;
73940;SDS011;62294;48.554;10.202;2023-04-24T11:06:06;2.45;;;1.17;;
73940;SDS011;62294;48.554;10.202;2023-04-24T11:08:38;1.20;;;1.10;;
73940;SDS011;62294;48.554;10.202;2023-04-24T11:24:26;1.42;;;1.20;;
73940;SDS011;62294;48.554;10.202;2023-04-24T11:26:56;2.53;;;1.30;;
73940;SDS011;62294;48.554;10.202;2023-04-24T11:35:00;3.55;;;1.20;;
73940;SDS011;62294;48.554;10.202;2023-04-24T11:37:36;1.30;;;1.20;;
73940;SDS011;62294;48.554;10.202;2023-04-24T11:40:07;2.10;;;1.30;;
73940;SDS011;62294;48.554;10.202;2023-04-24T11:42:37;1.45;;;1.30;;
73940;SDS011;62294;48.554;10.202;2023-04-24T11:45:07;1.60;;;1.20;;
73940;SDS011;62294;48.554;10.202;2023-04-24T11:47:36;2.67;;;1.23;;
73940;SDS011;62294;48.554;10.202;2023-04-24T11:50:04;2.65;;;1.30;;
73940;SDS011;62294;48.554;10.202;2023-04-24T11:52:32;1.13;;;1.02;;
73940;SDS011;62294;48.554;10.202;2023-04-24T11:55:03;1.70;;;1.02;;
73940;SDS011;62294;48.554;10.202;2023-04-24T11:57:30;2.25;;;0.88;;
73940;SDS011;62294;48.554;10.202;2023-04-24T12:00:01;1.52;;;1.25;;
73940;SDS011;62294;48.554;10.202;2023-04-24T12:02:30;2.75;;;1.08;;
73940;SDS011;62294;48.554;10.202;2023-04-24T12:04:57;2.30;;;1.13;;
73940;SDS011;62294;48.554;10.202;2023-04-24T12:07:24;2.35;;;1.20;;
73940;SDS011;62294;48.554;10.202;2023-04-24T12:09:55;8.18;;;1.40;;
73940;SDS011;62294;48.554;10.202;2023-04-24T12:12:27;0.95;;;0.93;;
73940;SDS011;62294;48.554;10.202;2023-04-24T12:14:55;1.40;;;1.30;;
73940;SDS011;62294;48.554;10.202;2023-04-24T12:17:24;0.90;;;0.90;;
73940;SDS011;62294;48.554;10.202;2023-04-24T12:19:58;1.75;;;1.15;;
73940;SDS011;62294;48.554;10.202;2023-04-24T12:25:13;1.77;;;1.20;;
73940;SDS011;62294;48.554;10.202;2023-04-24T12:27:42;2.45;;;1.40;;
73940;SDS011;62294;48.554;10.202;2023-04-24T12:30:11;1.23;;;1.05;;
73940;SDS011;62294;48.554;10.202;2023-04-24T12:32:43;1.13;;;0.90;;
73940;SDS011;62294;48.554;10.202;2023-04-24T12:35:11;2.15;;;1.58;;
73940;SDS011;62294;48.554;10.202;2023-04-24T12:37:38;1.25;;;0.70;;
73940;SDS011;62294;48.554;10.202;2023-04-24T12:40:06;1.88;;;1.10;;
73940;SDS011;62294;48.554;10.202;2023-04-24T12:42:44;6.43;;;1.45;;
73940;SDS011;62294;48.554;10.202;2023-04-24T12:45:12;4.50;;;1.00;;
73940;SDS011;62294;48.554;10.202;2023-04-24T12:47:39;3.03;;;1.00;;
73940;SDS011;62294;48.554;10.202;2023-04-24T12:50:08;5.57;;;1.15;;
73940;SDS011;62294;48.554;10.202;2023-04-24T12:52:36;3.05;;;1.00;;
73940;SDS011;62294;48.554;10.202;2023-04-24T12:55:03;1.88;;;1.08;;
73940;SDS011;62294;48.554;10.202;2023-04-24T12:57:30;17.52;;;1.55;;
73940;SDS011;62294;48.554;10.202;2023-04-24T12:59:57;2.38;;;1.13;;
73940;SDS011;62294;48.554;10.202;2023-04-24T13:02:25;1.40;;;0.82;;
73940;SDS011;62294;48.554;10.202;2023-04-24T13:04:54;0.85;;;0.80;;
73940;SDS011;62294;48.554;10.202;2023-04-24T13:07:21;0.82;;;0.80;;
73940;SDS011;62294;48.554;10.202;2023-04-24T13:09:48;0.98;;;0.70;;
73940;SDS011;62294;48.554;10.202;2023-04-24T13:12:16;2.30;;;0.90;;
73940;SDS011;62294;48.554;10.202;2023-04-24T13:14:44;1.27;;;0.90;;
73940;SDS011;62294;48.554;10.202;2023-04-24T13:17:10;0.65;;;0.65;;
73940;SDS011;62294;48.554;10.202;2023-04-24T13:19:39;2.03;;;1.23;;
73940;SDS011;62294;48.554;10.202;2023-04-24T13:22:08;1.10;;;0.93;;
73940;SDS011;62294;48.554;10.202;2023-04-24T13:24:36;1.20;;;1.00;;
73940;SDS011;62294;48.554;10.202;2023-04-24T13:27:05;0.88;;;0.82;;
73940;SDS011;62294;48.554;10.202;2023-04-24T13:29:31;1.75;;;1.02;;
73940;SDS011;62294;48.554;10.202;2023-04-24T13:31:58;2.10;;;1.10;;
73940;SDS011;62294;48.554;10.202;2023-04-24T13:34:24;1.30;;;1.00;;
73940;SDS011;62294;48.554;10.202;2023-04-24T13:36:52;1.23;;;0.93;;
73940;SDS011;62294;48.554;10.202;2023-04-24T13:39:21;2.05;;;1.70;;
73940;SDS011;62294;48.554;10.202;2023-04-24T13:41:48;3.08;;;1.05;;
73940;SDS011;62294;48.554;10.202;2023-04-24T13:44:16;1.15;;;1.05;;
73940;SDS011;62294;48.554;10.202;2023-04-24T13:46:44;1.40;;;0.93;;
73940;SDS011;62294;48.554;10.202;2023-04-24T13:49:13;4.60;;;1.23;;
73940;SDS011;62294;48.554;10.202;2023-04-24T13:51:40;0.90;;;0.90;;
73940;SDS011;62294;48.554;10.202;2023-04-24T13:54:08;3.28;;;1.23;;
73940;SDS011;62294;48.554;10.202;2023-04-24T13:56:34;1.27;;;1.00;;
73940;SDS011;62294;48.554;10.202;2023-04-24T13:59:01;4.63;;;1.10;;
73940;SDS011;62294;48.554;10.202;2023-04-24T14:01:28;1.05;;;0.98;;
73940;SDS011;62294;48.554;10.202;2023-04-24T14:03:55;2.42;;;1.17;;
73940;SDS011;62294;48.554;10.202;2023-04-24T14:06:22;0.95;;;0.90;;
73940;SDS011;62294;48.554;10.202;2023-04-24T14:08:49;1.05;;;0.90;;
73940;SDS011;62294;48.554;10.202;2023-04-24T14:11:16;1.00;;;0.90;;
73940;SDS011;62294;48.554;10.202;2023-04-24T14:13:44;3.58;;;0.90;;
73940;SDS011;62294;48.554;10.202;2023-04-24T14:16:12;0.60;;;0.60;;
73940;SDS011;62294;48.554;10.202;2023-04-24T14:18:39;0.80;;;0.80;;
73940;SDS011;62294;48.554;10.202;2023-04-24T14:21:05;1.55;;;0.90;;
73940;SDS011;62294;48.554;10.202;2023-04-24T14:23:32;1.33;;;0.90;;
73940;SDS011;62294;48.554;10.202;2023-04-24T14:25:59;0.80;;;0.80;;
73940;SDS011;62294;48.554;10.202;2023-04-24T14:28:26;1.13;;;1.00;;
73940;SDS011;62294;48.554;10.202;2023-04-24T14:30:53;2.75;;;0.90;;
73940;SDS011;62294;48.554;10.202;2023-04-24T14:33:19;2.15;;;1.10;;
73940;SDS011;62294;48.554;10.202;2023-04-24T14:35:46;0.82;;;0.80;;
73940;SDS011;62294;48.554;10.202;2023-04-24T14:38:14;2.05;;;1.10;;
73940;SDS011;62294;48.554;10.202;2023-04-24T14:40:41;3.70;;;1.42;;
73940;SDS011;62294;48.554;10.202;2023-04-24T14:43:11;3.70;;;1.20;;
73940;SDS011;62294;48.554;10.202;2023-04-24T14:45:37;1.30;;;1.10;;
73940;SDS011;62294;48.554;10.202;2023-04-24T14:48:04;1.63;;;0.90;;
73940;SDS011;62294;48.554;10.202;2023-04-24T14:50:31;0.98;;;0.90;;
73940;SDS011;62294;48.554;10.202;2023-04-24T14:52:57;2.03;;;1.20;;
73940;SDS011;62294;48.554;10.202;2023-04-24T14:55:24;1.42;;;1.20;;
73940;SDS011;62294;48.554;10.202;2023-04-24T14:57:52;1.50;;;1.05;;
73940;SDS011;62294;48.554;10.202;2023-04-24T15:00:19;1.30;;;1.20;;